Ord, Nebraska
Current Conditions -  °F | °C
As of 7:53 PM on Wednesday 26 Nov 2014 (Local Time) from KODX Reporting Station
Clear Clear  
Wind Chill: 15°   Ceiling: Unl
Heat Index: 21°   Visibility: 10mi
Dew Point: 14°   Wind: 5mph
Humidity: 74%   Direction: 310°NW
Pressure: 30.37"   Gusts: NA
Location:  41.6°N, 98.93°W
Report Text: KODX 270153Z AUTO 31004KT 10SM CLR M06/M10 A3037 RMK AO2 SLP319 T10611100
Loading
Personal Weather Stations






























Interactive Weather Map New forecast layout! Learn more

10-Day Weather Forecast

Advertisements
Track Severe Weather on mobile